Time,TemperatureF,DewpointF,PressureIn,WindDirection,WindDirectionDegrees,WindSpeedMPH,WindSpeedGustMPH,Humidity,HourlyPrecipIn,Conditions,Clouds,dailyrainin,SoftwareType,DateUTC
2013-02-07 00:07:00,15.3,3.2,30.19,SSW,202,0.0,-999.0,58,-99.99,,,0.00,Acu-Link.com,2013-02-07 05:07:00,
2013-02-07 00:22:00,14.5,2.8,30.19,SSW,202,0.0,-999.0,59,-99.99,,,0.00,Acu-Link.com,2013-02-07 05:22:00,
2013-02-07 00:37:00,14.0,3.1,30.19,SSW,202,0.0,-999.0,61,-99.99,,,0.00,Acu-Link.com,2013-02-07 05:37:00,
2013-02-07 00:52:00,13.3,3.4,30.19,SSW,202,0.0,-999.0,64,-99.99,,,0.00,Acu-Link.com,2013-02-07 05:52:00,
2013-02-07 01:07:00,12.7,2.2,30.20,SSW,202,0.0,-999.0,62,-99.99,,,0.00,Acu-Link.com,2013-02-07 06:07:00,
2013-02-07 01:23:00,12.4,2.9,30.20,SSW,202,0.0,-999.0,65,-99.99,,,0.00,Acu-Link.com,2013-02-07 06:23:00,
2013-02-07 01:38:00,11.8,2.3,30.21,SSW,202,0.0,-999.0,65,-99.99,,,0.00,Acu-Link.com,2013-02-07 06:38:00,
2013-02-07 01:53:00,11.7,1.9,30.21,SSW,202,0.0,-999.0,64,-99.99,,,0.00,Acu-Link.com,2013-02-07 06:53:00,
2013-02-07 02:08:00,11.1,2.0,30.21,SSW,202,0.0,-999.0,66,-99.99,,,0.00,Acu-Link.com,2013-02-07 07:08:00,
2013-02-07 02:23:00,10.8,1.7,30.22,SSW,202,0.0,-999.0,66,-99.99,,,0.00,Acu-Link.com,2013-02-07 07:23:00,
2013-02-07 02:38:00,10.4,1.3,30.21,SSW,202,0.0,-999.0,66,-99.99,,,0.00,Acu-Link.com,2013-02-07 07:38:00,
2013-02-07 02:54:00,10.2,0.8,30.21,SSW,202,1.7,-999.0,65,-99.99,,,0.00,Acu-Link.com,2013-02-07 07:54:00,
2013-02-07 03:09:00,9.9,0.5,30.21,SSW,202,0.0,-999.0,65,-99.99,,,0.00,Acu-Link.com,2013-02-07 08:09:00,
2013-02-07 03:24:00,10.0,0.3,30.22,SSW,202,1.7,-999.0,64,-99.99,,,0.00,Acu-Link.com,2013-02-07 08:24:00,
2013-02-07 03:39:00,10.2,0.1,30.24,SSW,202,0.0,-999.0,63,-99.99,,,0.00,Acu-Link.com,2013-02-07 08:39:00,
2013-02-07 03:54:00,10.0,0.0,30.25,SSW,202,0.0,-999.0,63,-99.99,,,0.00,Acu-Link.com,2013-02-07 08:54:00,
2013-02-07 04:09:00,9.7,0.0,30.26,SSW,202,0.0,-999.0,64,-99.99,,,0.00,Acu-Link.com,2013-02-07 09:09:00,
2013-02-07 04:25:00,9.3,0.0,30.27,SSW,202,0.0,-999.0,65,-99.99,,,0.00,Acu-Link.com,2013-02-07 09:25:00,
2013-02-07 04:40:00,9.0,0.3,30.27,SSW,202,0.0,-999.0,67,-99.99,,,0.00,Acu-Link.com,2013-02-07 09:40:00,
2013-02-07 04:55:00,9.0,0.0,30.27,SSW,202,0.0,-999.0,66,-99.99,,,0.00,Acu-Link.com,2013-02-07 09:55:00,
2013-02-07 05:10:00,8.8,0.1,30.27,SSW,202,0.0,-999.0,67,-99.99,,,0.00,Acu-Link.com,2013-02-07 10:10:00,
2013-02-07 05:25:00,8.6,-0.4,30.28,SSW,202,0.0,-999.0,66,-99.99,,,0.00,Acu-Link.com,2013-02-07 10:25:00,
2013-02-07 05:40:00,8.4,-0.3,30.27,SSW,202,0.0,-999.0,67,-99.99,,,0.00,Acu-Link.com,2013-02-07 10:40:00,
2013-02-07 05:55:00,8.1,0.4,30.28,SSW,202,0.0,-999.0,70,-99.99,,,0.00,Acu-Link.com,2013-02-07 10:55:00,
2013-02-07 06:10:00,7.9,-0.1,30.29,SSW,202,0.0,-999.0,69,-99.99,,,0.00,Acu-Link.com,2013-02-07 11:10:00,
2013-02-07 06:25:00,7.5,-0.5,30.30,SSW,202,0.0,-999.0,69,-99.99,,,0.00,Acu-Link.com,2013-02-07 11:25:00,
2013-02-07 06:40:00,7.3,-0.7,30.30,SSW,202,0.0,-999.0,69,-99.99,,,0.00,Acu-Link.com,2013-02-07 11:40:00,
2013-02-07 06:56:00,7.3,-0.1,30.32,SSW,202,0.0,-999.0,71,-99.99,,,0.00,Acu-Link.com,2013-02-07 11:56:00,
2013-02-07 07:11:00,7.5,-0.2,30.33,SSW,202,0.0,-999.0,70,-99.99,,,0.00,Acu-Link.com,2013-02-07 12:11:00,
2013-02-07 07:26:00,7.7,-0.3,30.34,SSW,202,0.0,-999.0,69,-99.99,,,0.00,Acu-Link.com,2013-02-07 12:26:00,
2013-02-07 07:41:00,8.4,-0.6,30.35,SSW,202,0.0,-999.0,66,-99.99,,,0.00,Acu-Link.com,2013-02-07 12:41:00,
2013-02-07 07:56:00,9.5,-1.2,30.36,SSW,202,0.0,-999.0,61,-99.99,,,0.00,Acu-Link.com,2013-02-07 12:56:00,
2013-02-07 08:11:00,10.6,-1.6,30.36,SSW,202,0.0,-999.0,57,-99.99,,,0.00,Acu-Link.com,2013-02-07 13:11:00,
2013-02-07 08:26:00,11.8,-1.2,30.37,SSW,202,1.7,-999.0,55,-99.99,,,0.00,Acu-Link.com,2013-02-07 13:26:00,
2013-02-07 08:41:00,12.2,-1.6,30.38,SSW,202,1.7,-999.0,53,-99.99,,,0.00,Acu-Link.com,2013-02-07 13:41:00,
2013-02-07 08:56:00,12.7,-1.6,30.39,SSW,202,0.0,-999.0,52,-99.99,,,0.00,Acu-Link.com,2013-02-07 13:56:00,
2013-02-07 09:12:00,14.5,-0.7,30.38,SSW,202,1.7,-999.0,50,-99.99,,,0.00,Acu-Link.com,2013-02-07 14:12:00,
2013-02-07 09:27:00,15.3,0.0,30.38,SSW,202,2.2,-999.0,50,-99.99,,,0.00,Acu-Link.com,2013-02-07 14:27:00,
2013-02-07 09:42:00,15.1,-1.0,30.39,SSW,202,0.0,-999.0,48,-99.99,,,0.00,Acu-Link.com,2013-02-07 14:42:00,
2013-02-07 09:57:00,15.8,-1.7,30.39,SSW,202,3.2,-999.0,45,-99.99,,,0.00,Acu-Link.com,2013-02-07 14:57:00,
2013-02-07 10:12:00,16.9,0.2,30.39,SSW,202,0.0,-999.0,47,-99.99,,,0.00,Acu-Link.com,2013-02-07 15:12:00,
2013-02-07 10:27:00,18.3,-0.4,30.40,SSW,202,2.2,-999.0,43,-99.99,,,0.00,Acu-Link.com,2013-02-07 15:27:00,
2013-02-07 10:43:00,17.4,-1.2,30.40,ENE,67,2.2,-999.0,43,-99.99,,,0.00,Acu-Link.com,2013-02-07 15:43:00,
2013-02-07 10:58:00,17.1,-1.0,30.40,ENE,67,2.2,-999.0,44,-99.99,,,0.00,Acu-Link.com,2013-02-07 15:58:00,
2013-02-07 11:13:00,19.2,0.9,30.39,North,0,0.0,-999.0,44,-99.99,,,0.00,Acu-Link.com,2013-02-07 16:13:00,
2013-02-07 11:28:00,20.3,0.4,30.39,SW,225,0.0,-999.0,41,-99.99,,,0.00,Acu-Link.com,2013-02-07 16:28:00,
2013-02-07 11:43:00,19.0,-0.3,30.38,NE,45,2.7,-999.0,42,-99.99,,,0.00,Acu-Link.com,2013-02-07 16:43:00,
2013-02-07 11:58:00,21.0,0.5,30.37,NNE,22,2.2,-999.0,40,-99.99,,,0.00,Acu-Link.com,2013-02-07 16:58:00,
2013-02-07 12:13:00,21.7,0.6,30.37,NNE,22,1.7,-999.0,39,-99.99,,,0.00,Acu-Link.com,2013-02-07 17:13:00,
2013-02-07 12:28:00,21.9,1.9,30.36,ENE,67,2.2,-999.0,41,-99.99,,,0.00,Acu-Link.com,2013-02-07 17:28:00,
2013-02-07 12:43:00,22.1,2.0,30.35,North,0,2.7,-999.0,41,-99.99,,,0.00,Acu-Link.com,2013-02-07 17:43:00,
2013-02-07 12:59:00,22.1,0.4,30.35,NNW,337,2.2,-999.0,38,-99.99,,,0.00,Acu-Link.com,2013-02-07 17:59:00,
2013-02-07 13:14:00,22.6,1.4,30.34,ESE,112,4.7,-999.0,39,-99.99,,,0.00,Acu-Link.com,2013-02-07 18:14:00,
2013-02-07 13:29:00,23.7,1.9,30.34,NNW,337,4.2,-999.0,38,-99.99,,,0.00,Acu-Link.com,2013-02-07 18:29:00,
2013-02-07 13:44:00,22.8,2.1,30.34,SSW,202,2.7,-999.0,40,-99.99,,,0.00,Acu-Link.com,2013-02-07 18:44:00,
2013-02-07 13:59:00,23.2,2.0,30.34,NNW,337,1.1,-999.0,39,-99.99,,,0.00,Acu-Link.com,2013-02-07 18:59:00,
2013-02-07 14:14:00,23.0,1.8,30.33,NNW,337,2.2,-999.0,39,-99.99,,,0.00,Acu-Link.com,2013-02-07 19:14:00,
2013-02-07 14:30:00,23.5,1.7,30.33,NNW,337,4.2,-999.0,38,-99.99,,,0.00,Acu-Link.com,2013-02-07 19:30:00,
2013-02-07 14:45:00,23.7,1.9,30.33,NNW,337,2.7,-999.0,38,-99.99,,,0.00,Acu-Link.com,2013-02-07 19:45:00,
2013-02-07 15:00:00,23.9,2.0,30.33,NNW,337,0.0,-999.0,38,-99.99,,,0.00,Acu-Link.com,2013-02-07 20:00:00,
2013-02-07 15:15:00,23.7,1.9,30.33,NE,45,2.2,-999.0,38,-99.99,,,0.00,Acu-Link.com,2013-02-07 20:15:00,
2013-02-07 15:30:00,23.5,3.3,30.32,NE,45,1.1,-999.0,41,-99.99,,,0.00,Acu-Link.com,2013-02-07 20:30:00,
2013-02-07 15:45:00,23.5,2.2,30.33,NE,45,1.1,-999.0,39,-99.99,,,0.00,Acu-Link.com,2013-02-07 20:45:00,
2013-02-07 16:00:00,23.0,4.4,30.33,NE,45,0.0,-999.0,44,-99.99,,,0.00,Acu-Link.com,2013-02-07 21:00:00,
2013-02-07 16:15:00,22.6,2.5,30.32,NE,45,1.1,-999.0,41,-99.99,,,0.00,Acu-Link.com,2013-02-07 21:15:00,
2013-02-07 16:30:00,22.3,3.2,30.32,NE,45,0.0,-999.0,43,-99.99,,,0.00,Acu-Link.com,2013-02-07 21:30:00,
2013-02-07 16:45:00,21.6,3.1,30.33,NE,45,0.0,-999.0,44,-99.99,,,0.00,Acu-Link.com,2013-02-07 21:45:00,
2013-02-07 17:01:00,21.2,3.2,30.32,NE,45,0.0,-999.0,45,-99.99,,,0.00,Acu-Link.com,2013-02-07 22:01:00,
2013-02-07 17:16:00,20.7,5.5,30.32,NE,45,0.0,-999.0,51,-99.99,,,0.00,Acu-Link.com,2013-02-07 22:16:00,
2013-02-07 17:31:00,20.5,4.4,30.33,NE,45,0.0,-999.0,49,-99.99,,,0.00,Acu-Link.com,2013-02-07 22:31:00,
2013-02-07 17:46:00,20.5,4.0,30.34,NE,45,0.0,-999.0,48,-99.99,,,0.00,Acu-Link.com,2013-02-07 22:46:00,
2013-02-07 18:01:00,20.5,3.0,30.35,NE,45,0.0,-999.0,46,-99.99,,,0.00,Acu-Link.com,2013-02-07 23:01:00,
2013-02-07 18:16:00,20.5,4.4,30.35,NE,45,0.0,-999.0,49,-99.99,,,0.00,Acu-Link.com,2013-02-07 23:16:00,
2013-02-07 18:31:00,20.5,2.6,30.34,NE,45,0.0,-999.0,45,-99.99,,,0.00,Acu-Link.com,2013-02-07 23:31:00,
2013-02-07 18:46:00,20.7,5.0,30.35,NE,45,0.0,-999.0,50,-99.99,,,0.00,Acu-Link.com,2013-02-07 23:46:00,
2013-02-07 19:01:00,20.7,4.1,30.34,NE,45,0.0,-999.0,48,-99.99,,,0.00,Acu-Link.com,2013-02-08 00:01:00,
2013-02-07 19:17:00,20.7,5.0,30.34,NE,45,0.0,-999.0,50,-99.99,,,0.00,Acu-Link.com,2013-02-08 00:17:00,
2013-02-07 19:32:00,20.7,5.5,30.35,NE,45,0.0,-999.0,51,-99.99,,,0.00,Acu-Link.com,2013-02-08 00:32:00,
2013-02-07 19:47:00,20.5,6.1,30.35,NE,45,0.0,-999.0,53,-99.99,,,0.00,Acu-Link.com,2013-02-08 00:47:00,
2013-02-07 20:02:00,20.5,4.9,30.34,NE,45,0.0,-999.0,50,-99.99,,,0.00,Acu-Link.com,2013-02-08 01:02:00,
2013-02-07 20:17:00,20.5,4.4,30.34,NE,45,0.0,-999.0,49,-99.99,,,0.00,Acu-Link.com,2013-02-08 01:17:00,
2013-02-07 20:32:00,20.5,4.0,30.33,NE,45,0.0,-999.0,48,-99.99,,,0.00,Acu-Link.com,2013-02-08 01:32:00,
2013-02-07 20:47:00,20.5,4.4,30.34,NE,45,0.0,-999.0,49,-99.99,,,0.00,Acu-Link.com,2013-02-08 01:47:00,
2013-02-07 21:02:00,20.5,6.9,30.33,NE,45,0.0,-999.0,55,-99.99,,,0.00,Acu-Link.com,2013-02-08 02:02:00,
2013-02-07 21:17:00,20.5,5.3,30.33,NE,45,0.0,-999.0,51,-99.99,,,0.00,Acu-Link.com,2013-02-08 02:17:00,
2013-02-07 21:34:00,20.5,4.9,30.33,NE,45,0.0,-999.0,50,-99.99,,,0.00,Acu-Link.com,2013-02-08 02:34:00,
2013-02-07 21:49:00,20.5,5.3,30.33,NE,45,0.0,-999.0,51,-99.99,,,0.00,Acu-Link.com,2013-02-08 02:49:00,
2013-02-07 22:04:00,20.5,4.4,30.32,NE,45,0.0,-999.0,49,-99.99,,,0.00,Acu-Link.com,2013-02-08 03:04:00,
2013-02-07 22:19:00,20.3,5.1,30.33,NE,45,0.0,-999.0,51,-99.99,,,0.00,Acu-Link.com,2013-02-08 03:19:00,
2013-02-07 22:35:00,20.3,5.9,30.32,NE,45,0.0,-999.0,53,-99.99,,,0.00,Acu-Link.com,2013-02-08 03:35:00,
2013-02-07 22:50:00,20.3,5.9,30.32,NE,45,0.0,-999.0,53,-99.99,,,0.00,Acu-Link.com,2013-02-08 03:50:00,
2013-02-07 23:05:00,20.3,5.5,30.32,NE,45,0.0,-999.0,52,-99.99,,,0.00,Acu-Link.com,2013-02-08 04:05:00,
2013-02-07 23:20:00,20.3,4.2,30.32,NE,45,0.0,-999.0,49,-99.99,,,0.00,Acu-Link.com,2013-02-08 04:20:00,
2013-02-07 23:35:00,20.3,4.7,30.32,NE,45,0.0,-999.0,50,-99.99,,,0.00,Acu-Link.com,2013-02-08 04:35:00,
2013-02-07 23:50:00,20.3,4.2,30.32,NE,45,0.0,-999.0,49,-99.99,,,0.00,Acu-Link.com,2013-02-08 04:50:00,